createdAt,value
2023-05-20T08:24:17.596Z,5.12
2023-05-20T08:29:12.741Z,5.07
2023-05-20T08:31:40.546Z,5.25
2023-05-20T08:34:08.342Z,5.35
2023-05-20T08:36:35.988Z,5.07
2023-05-20T08:39:04.516Z,5.20
2023-05-20T08:41:32.244Z,5.43
2023-05-20T08:44:01.856Z,5.28
2023-05-20T08:46:30.050Z,5.80
2023-05-20T09:13:39.789Z,5.60
2023-05-20T09:16:07.439Z,5.80
2023-05-20T09:18:39.026Z,5.97
2023-05-20T09:21:09.384Z,6.50
2023-05-20T09:23:38.304Z,6.32
2023-05-20T09:26:06.138Z,6.33
2023-05-20T09:28:33.861Z,6.10
2023-05-20T09:31:02.203Z,6.82
2023-05-20T09:33:30.504Z,6.53
2023-05-20T09:36:05.124Z,6.40
2023-05-20T09:38:39.086Z,6.28
2023-05-20T09:41:09.425Z,6.15
2023-05-20T09:43:39.493Z,6.17
2023-05-20T09:46:08.260Z,6.33
2023-05-20T09:48:37.290Z,6.20
2023-05-20T09:51:06.935Z,6.28
2023-05-20T09:53:34.642Z,6.32
2023-05-20T09:56:02.129Z,6.40
2023-05-20T09:58:30.285Z,6.20
2023-05-20T10:00:57.829Z,6.17
2023-05-20T10:03:28.060Z,6.17
2023-05-20T10:06:25.718Z,5.97
2023-05-20T10:09:19.328Z,5.93
2023-05-20T10:12:04.569Z,6.00
2023-05-20T10:14:59.839Z,6.57
2023-05-20T10:17:36.590Z,6.10
2023-05-20T10:20:09.203Z,6.30
2023-05-20T10:22:36.667Z,5.85
2023-05-20T10:25:12.460Z,6.05
2023-05-20T10:27:47.101Z,6.20
2023-05-20T10:30:22.413Z,6.03
2023-05-20T10:32:54.468Z,6.12
2023-05-20T10:35:26.414Z,5.80
2023-05-20T10:37:55.398Z,5.70
2023-05-20T10:40:23.240Z,6.15
2023-05-20T10:42:50.690Z,5.60
2023-05-20T10:45:28.926Z,6.53
2023-05-20T10:47:58.612Z,6.15
2023-05-20T10:50:36.839Z,6.40
2023-05-20T10:53:15.958Z,6.03
2023-05-20T10:55:54.694Z,5.70
2023-05-20T10:58:23.935Z,6.30
2023-05-20T11:00:54.770Z,5.55
2023-05-20T11:03:23.400Z,6.12
2023-05-20T11:05:51.232Z,6.22
2023-05-20T11:08:28.388Z,5.95
2023-05-20T11:10:57.752Z,6.10
2023-05-20T11:13:27.149Z,6.15
2023-05-20T11:15:55.611Z,6.22
2023-05-20T11:18:23.406Z,5.62
2023-05-20T11:20:51.140Z,5.95
2023-05-20T11:23:19.244Z,6.65
2023-05-20T11:25:47.057Z,6.10
2023-05-20T11:28:14.729Z,5.97
2023-05-20T11:30:43.180Z,6.28
2023-05-20T11:33:17.466Z,6.05
2023-05-20T11:35:52.867Z,6.45
2023-05-20T11:38:21.874Z,6.22
2023-05-20T11:40:54.810Z,5.90
2023-05-20T11:43:23.780Z,6.60
2023-05-20T11:45:56.197Z,6.10
2023-05-20T11:48:24.532Z,6.55
2023-05-20T11:50:55.631Z,6.03
2023-05-20T11:53:24.439Z,6.12
2023-05-20T11:55:56.377Z,6.30
2023-05-20T11:58:25.551Z,6.22
2023-05-20T12:00:59.512Z,6.10
2023-05-20T12:03:37.590Z,6.45
2023-05-20T12:06:05.295Z,6.47
2023-05-20T12:08:32.771Z,6.20
2023-05-20T12:11:00.498Z,6.12
2023-05-20T12:13:27.966Z,6.37
2023-05-20T12:15:55.485Z,6.60
2023-05-20T12:18:23.396Z,6.32
2023-05-20T12:20:51.655Z,6.30
2023-05-20T12:23:19.200Z,6.32
2023-05-20T12:25:49.849Z,6.57
2023-05-20T12:28:17.791Z,6.18
2023-05-20T12:30:45.211Z,6.70
2023-05-20T12:33:12.960Z,6.50
2023-05-20T12:35:42.229Z,6.25
2023-05-20T12:38:10.153Z,6.30
2023-05-20T12:40:38.417Z,6.18
2023-05-20T12:43:06.383Z,6.40
2023-05-20T12:45:33.822Z,6.20
2023-05-20T12:48:01.838Z,6.87
2023-05-20T12:50:29.842Z,6.72
2023-05-20T12:52:57.335Z,6.62
2023-05-20T12:55:30.770Z,6.10
2023-05-20T12:57:58.681Z,6.50
2023-05-20T13:00:26.425Z,6.22
2023-05-20T13:02:54.820Z,6.82
2023-05-20T13:05:22.857Z,6.20
2023-05-20T13:07:50.618Z,6.47
2023-05-20T13:10:18.606Z,6.55
2023-05-20T13:12:46.406Z,6.37
2023-05-20T13:15:14.776Z,6.78
2023-05-20T13:17:45.008Z,6.70
2023-05-20T13:20:13.102Z,6.87
2023-05-20T17:38:55.673Z,5.85
2023-05-20T17:41:23.161Z,5.72
2023-05-20T17:43:50.697Z,7.10
2023-05-20T17:46:18.621Z,6.40
2023-05-20T19:00:15.604Z,5.97
2023-05-20T19:02:43.558Z,6.90
2023-05-20T19:05:12.471Z,7.05
2023-05-20T19:10:08.275Z,7.47
2023-05-20T19:12:35.849Z,7.45
2023-05-20T19:15:05.161Z,7.95
2023-05-20T19:17:33.226Z,7.45
2023-05-20T19:20:00.858Z,8.20
2023-05-20T19:22:28.324Z,9.27
2023-05-20T19:27:23.468Z,9.40
2023-05-20T19:47:02.686Z,10.07
2023-05-20T19:49:30.099Z,12.25
2023-05-20T19:54:27.016Z,11.88
2023-05-20T19:56:54.573Z,13.30
2023-05-20T19:59:22.040Z,13.50
2023-05-20T20:01:49.805Z,15.68
2023-05-20T20:04:18.538Z,15.18
2023-05-20T20:06:47.128Z,14.93
2023-05-20T20:09:14.604Z,14.07
2023-05-20T20:11:43.388Z,14.60
2023-05-20T20:14:11.126Z,13.85
2023-05-20T20:16:38.711Z,13.57
2023-05-20T20:19:06.532Z,14.02
2023-05-20T20:21:36.276Z,12.43
